sensor_id;sensor_type;location;lat;lon;timestamp;pressure;altitude;pressure_sealevel;temperature;humidity
43364;BME280;40636;52.424;-1.948;2023-04-01T00:01:14;98310.94;;;9.05;100.00
43364;BME280;40636;52.424;-1.948;2023-04-01T00:03:42;98317.81;;;8.92;100.00
43364;BME280;40636;52.424;-1.948;2023-04-01T00:06:12;98321.06;;;8.99;100.00
43364;BME280;40636;52.424;-1.948;2023-04-01T00:08:39;98318.59;;;9.03;100.00
43364;BME280;40636;52.424;-1.948;2023-04-01T00:11:06;98327.63;;;9.03;100.00
43364;BME280;40636;52.424;-1.948;2023-04-01T00:13:33;98323.81;;;9.04;100.00
43364;BME280;40636;52.424;-1.948;2023-04-01T00:15:59;98322.47;;;8.97;100.00
43364;BME280;40636;52.424;-1.948;2023-04-01T00:18:29;98331.47;;;8.97;100.00
43364;BME280;40636;52.424;-1.948;2023-04-01T00:20:56;98322.75;;;8.95;100.00
43364;BME280;40636;52.424;-1.948;2023-04-01T00:23:22;98333.09;;;8.98;100.00
43364;BME280;40636;52.424;-1.948;2023-04-01T00:25:49;98338.59;;;8.93;100.00
43364;BME280;40636;52.424;-1.948;2023-04-01T00:28:18;98335.34;;;8.91;100.00
43364;BME280;40636;52.424;-1.948;2023-04-01T00:30:45;98336.41;;;8.90;100.00
43364;BME280;40636;52.424;-1.948;2023-04-01T00:33:12;98350.66;;;8.92;100.00
43364;BME280;40636;52.424;-1.948;2023-04-01T00:35:39;98347.13;;;8.86;100.00
43364;BME280;40636;52.424;-1.948;2023-04-01T00:38:07;98339.16;;;8.90;100.00
43364;BME280;40636;52.424;-1.948;2023-04-01T00:40:37;98350.09;;;8.95;100.00
43364;BME280;40636;52.424;-1.948;2023-04-01T00:43:14;98348.44;;;8.94;100.00
43364;BME280;40636;52.424;-1.948;2023-04-01T00:45:43;98354.19;;;8.98;100.00
43364;BME280;40636;52.424;-1.948;2023-04-01T00:48:13;98357.22;;;8.91;100.00
43364;BME280;40636;52.424;-1.948;2023-04-01T00:50:46;98353.38;;;8.97;100.00
43364;BME280;40636;52.424;-1.948;2023-04-01T00:53:16;98361.03;;;8.95;100.00
43364;BME280;40636;52.424;-1.948;2023-04-01T00:55:49;98366.53;;;8.95;100.00
43364;BME280;40636;52.424;-1.948;2023-04-01T00:58:18;98368.41;;;9.00;100.00
43364;BME280;40636;52.424;-1.948;2023-04-01T01:00:48;98375.78;;;8.99;100.00
43364;BME280;40636;52.424;-1.948;2023-04-01T01:03:17;98366.53;;;8.95;100.00
43364;BME280;40636;52.424;-1.948;2023-04-01T01:09:06;98370.91;;;8.91;100.00
43364;BME280;40636;52.424;-1.948;2023-04-01T01:14:28;98374.19;;;8.88;100.00
43364;BME280;40636;52.424;-1.948;2023-04-01T01:17:14;98376.41;;;8.86;100.00
43364;BME280;40636;52.424;-1.948;2023-04-01T01:22:52;98384.59;;;8.81;100.00
43364;BME280;40636;52.424;-1.948;2023-04-01T01:28:42;98386.25;;;8.82;100.00
43364;BME280;40636;52.424;-1.948;2023-04-01T01:36:45;98392.78;;;8.81;100.00
43364;BME280;40636;52.424;-1.948;2023-04-01T01:39:16;98397.44;;;8.80;100.00
43364;BME280;40636;52.424;-1.948;2023-04-01T01:41:46;98395.03;;;8.69;100.00
43364;BME280;40636;52.424;-1.948;2023-04-01T01:44:16;98396.66;;;8.70;100.00
43364;BME280;40636;52.424;-1.948;2023-04-01T01:46:44;98406.78;;;8.69;100.00
43364;BME280;40636;52.424;-1.948;2023-04-01T01:49:12;98403.25;;;8.63;100.00
43364;BME280;40636;52.424;-1.948;2023-04-01T01:51:41;98409.78;;;8.62;100.00
43364;BME280;40636;52.424;-1.948;2023-04-01T01:54:13;98410.88;;;8.67;100.00
43364;BME280;40636;52.424;-1.948;2023-04-01T01:56:44;98409.25;;;8.66;100.00
43364;BME280;40636;52.424;-1.948;2023-04-01T01:59:14;98414.44;;;8.67;100.00
43364;BME280;40636;52.424;-1.948;2023-04-01T02:01:44;98418.00;;;8.62;100.00
43364;BME280;40636;52.424;-1.948;2023-04-01T02:04:13;98419.09;;;8.61;100.00
43364;BME280;40636;52.424;-1.948;2023-04-01T02:06:46;98423.47;;;8.62;100.00
43364;BME280;40636;52.424;-1.948;2023-04-01T02:09:14;98423.72;;;8.66;100.00
43364;BME280;40636;52.424;-1.948;2023-04-01T02:11:47;98424.81;;;8.70;100.00
43364;BME280;40636;52.424;-1.948;2023-04-01T02:14:22;98429.47;;;8.70;100.00
43364;BME280;40636;52.424;-1.948;2023-04-01T02:19:41;98433.59;;;8.57;100.00
43364;BME280;40636;52.424;-1.948;2023-04-01T02:22:14;98434.41;;;8.62;100.00
43364;BME280;40636;52.424;-1.948;2023-04-01T02:24:43;98445.09;;;8.59;100.00
43364;BME280;40636;52.424;-1.948;2023-04-01T02:27:10;98440.13;;;8.66;100.00
43364;BME280;40636;52.424;-1.948;2023-04-01T02:29:37;98445.34;;;8.57;100.00
43364;BME280;40636;52.424;-1.948;2023-04-01T02:32:05;98453.53;;;8.57;100.00
43364;BME280;40636;52.424;-1.948;2023-04-01T02:34:33;98456.81;;;8.49;100.00
43364;BME280;40636;52.424;-1.948;2023-04-01T02:37:00;98455.75;;;8.50;100.00
43364;BME280;40636;52.424;-1.948;2023-04-01T02:39:27;98464.22;;;8.49;100.00
43364;BME280;40636;52.424;-1.948;2023-04-01T02:41:53;98459.84;;;8.37;100.00
43364;BME280;40636;52.424;-1.948;2023-04-01T02:44:20;98461.47;;;8.44;100.00
43364;BME280;40636;52.424;-1.948;2023-04-01T02:46:47;98464.50;;;8.42;100.00
43364;BME280;40636;52.424;-1.948;2023-04-01T02:49:14;98458.19;;;8.31;100.00
43364;BME280;40636;52.424;-1.948;2023-04-01T02:51:41;98457.63;;;8.29;100.00
43364;BME280;40636;52.424;-1.948;2023-04-01T02:54:07;98463.91;;;8.30;100.00
43364;BME280;40636;52.424;-1.948;2023-04-01T02:56:34;98462.53;;;8.32;100.00
43364;BME280;40636;52.424;-1.948;2023-04-01T02:59:01;98455.69;;;8.30;100.00
43364;BME280;40636;52.424;-1.948;2023-04-01T03:01:28;98468.25;;;8.31;100.00
43364;BME280;40636;52.424;-1.948;2023-04-01T03:03:55;98471.81;;;8.21;100.00
43364;BME280;40636;52.424;-1.948;2023-04-01T03:06:21;98471.28;;;8.29;100.00
43364;BME280;40636;52.424;-1.948;2023-04-01T03:08:48;98475.66;;;8.20;100.00
43364;BME280;40636;52.424;-1.948;2023-04-01T03:11:15;98485.75;;;8.20;100.00
43364;BME280;40636;52.424;-1.948;2023-04-01T03:13:41;98485.16;;;7.97;100.00
43364;BME280;40636;52.424;-1.948;2023-04-01T03:16:08;98483.47;;;7.81;100.00
43364;BME280;40636;52.424;-1.948;2023-04-01T03:18:35;98486.19;;;7.71;100.00
43364;BME280;40636;52.424;-1.948;2023-04-01T03:21:21;98495.16;;;7.61;100.00
43364;BME280;40636;52.424;-1.948;2023-04-01T03:23:47;98490.50;;;7.56;100.00
43364;BME280;40636;52.424;-1.948;2023-04-01T03:26:15;98498.13;;;7.54;100.00
43364;BME280;40636;52.424;-1.948;2023-04-01T03:28:42;98494.81;;;7.47;100.00
43364;BME280;40636;52.424;-1.948;2023-04-01T03:31:09;98504.66;;;7.53;100.00
43364;BME280;40636;52.424;-1.948;2023-04-01T03:33:36;98501.94;;;7.58;100.00
43364;BME280;40636;52.424;-1.948;2023-04-01T03:36:03;98510.69;;;7.50;100.00
43364;BME280;40636;52.424;-1.948;2023-04-01T03:38:34;98521.84;;;7.54;100.00
43364;BME280;40636;52.424;-1.948;2023-04-01T03:41:01;98512.84;;;7.48;100.00
43364;BME280;40636;52.424;-1.948;2023-04-01T03:43:28;98524.53;;;7.38;100.00
43364;BME280;40636;52.424;-1.948;2023-04-01T03:45:54;98523.69;;;7.38;100.00
43364;BME280;40636;52.424;-1.948;2023-04-01T03:48:24;98528.00;;;7.24;100.00
43364;BME280;40636;52.424;-1.948;2023-04-01T03:50:51;98525.75;;;7.16;100.00
43364;BME280;40636;52.424;-1.948;2023-04-01T03:53:18;98529.34;;;7.21;100.00
43364;BME280;40636;52.424;-1.948;2023-04-01T03:55:45;98532.88;;;7.22;100.00
43364;BME280;40636;52.424;-1.948;2023-04-01T03:58:11;98526.34;;;7.23;100.00
43364;BME280;40636;52.424;-1.948;2023-04-01T04:00:38;98529.63;;;7.25;100.00
43364;BME280;40636;52.424;-1.948;2023-04-01T04:03:06;98528.28;;;7.22;100.00
43364;BME280;40636;52.424;-1.948;2023-04-01T04:05:33;98531.28;;;7.26;100.00
43364;BME280;40636;52.424;-1.948;2023-04-01T04:08:01;98542.16;;;7.21;100.00
43364;BME280;40636;52.424;-1.948;2023-04-01T04:10:27;98539.44;;;7.21;100.00
43364;BME280;40636;52.424;-1.948;2023-04-01T04:12:55;98546.81;;;7.25;100.00
43364;BME280;40636;52.424;-1.948;2023-04-01T04:15:23;98541.13;;;7.27;100.00
43364;BME280;40636;52.424;-1.948;2023-04-01T04:17:49;98543.31;;;7.30;100.00
43364;BME280;40636;52.424;-1.948;2023-04-01T04:20:16;98558.59;;;7.31;100.00
43364;BME280;40636;52.424;-1.948;2023-04-01T04:22:43;98551.75;;;7.28;100.00
43364;BME280;40636;52.424;-1.948;2023-04-01T04:25:10;98564.00;;;7.26;100.00
43364;BME280;40636;52.424;-1.948;2023-04-01T04:27:36;98565.06;;;7.20;100.00
43364;BME280;40636;52.424;-1.948;2023-04-01T04:30:04;98561.53;;;7.19;100.00
43364;BME280;40636;52.424;-1.948;2023-04-01T04:32:31;98568.34;;;7.22;100.00
43364;BME280;40636;52.424;-1.948;2023-04-01T04:34:58;98576.28;;;7.23;100.00
43364;BME280;40636;52.424;-1.948;2023-04-01T04:37:25;98578.44;;;7.21;100.00
43364;BME280;40636;52.424;-1.948;2023-04-01T04:39:52;98582.56;;;7.24;100.00
43364;BME280;40636;52.424;-1.948;2023-04-01T04:42:19;98578.19;;;7.23;100.00
43364;BME280;40636;52.424;-1.948;2023-04-01T04:44:46;98579.78;;;7.14;100.00
43364;BME280;40636;52.424;-1.948;2023-04-01T04:47:13;98574.34;;;7.19;100.00
43364;BME280;40636;52.424;-1.948;2023-04-01T04:49:40;98586.63;;;7.21;100.00
43364;BME280;40636;52.424;-1.948;2023-04-01T04:52:06;98577.38;;;7.22;100.00
43364;BME280;40636;52.424;-1.948;2023-04-01T04:54:33;98588.03;;;7.24;100.00
43364;BME280;40636;52.424;-1.948;2023-04-01T04:57:00;98584.72;;;7.22;100.00
43364;BME280;40636;52.424;-1.948;2023-04-01T04:59:26;98583.34;;;7.19;100.00
43364;BME280;40636;52.424;-1.948;2023-04-01T05:01:53;98582.56;;;7.24;100.00
43364;BME280;40636;52.424;-1.948;2023-04-01T05:04:20;98591.56;;;7.24;100.00
43364;BME280;40636;52.424;-1.948;2023-04-01T05:06:46;98592.63;;;7.18;100.00
43364;BME280;40636;52.424;-1.948;2023-04-01T05:09:13;98596.16;;;7.19;100.00
43364;BME280;40636;52.424;-1.948;2023-04-01T05:11:40;98598.91;;;7.19;100.00
43364;BME280;40636;52.424;-1.948;2023-04-01T05:14:12;98601.31;;;7.15;100.00
43364;BME280;40636;52.424;-1.948;2023-04-01T05:16:39;98603.22;;;7.15;100.00
43364;BME280;40636;52.424;-1.948;2023-04-01T05:19:05;98602.66;;;7.12;100.00
43364;BME280;40636;52.424;-1.948;2023-04-01T05:21:32;98613.28;;;7.09;100.00
43364;BME280;40636;52.424;-1.948;2023-04-01T05:23:59;98617.91;;;7.08;100.00
43364;BME280;40636;52.424;-1.948;2023-04-01T05:26:25;98624.44;;;7.07;100.00
43364;BME280;40636;52.424;-1.948;2023-04-01T05:28:52;98619.56;;;7.09;100.00
43364;BME280;40636;52.424;-1.948;2023-04-01T05:31:19;98627.13;;;7.02;100.00
43364;BME280;40636;52.424;-1.948;2023-04-01T05:33:46;98632.06;;;7.05;100.00
43364;BME280;40636;52.424;-1.948;2023-04-01T05:36:14;98640.81;;;7.07;100.00
43364;BME280;40636;52.424;-1.948;2023-04-01T05:38:42;98637.22;;;7.02;100.00
43364;BME280;40636;52.424;-1.948;2023-04-01T05:41:10;98638.31;;;7.01;100.00
43364;BME280;40636;52.424;-1.948;2023-04-01T05:43:37;98650.31;;;7.00;100.00
43364;BME280;40636;52.424;-1.948;2023-04-01T05:46:04;98648.34;;;6.95;100.00
43364;BME280;40636;52.424;-1.948;2023-04-01T05:48:33;98652.69;;;6.91;100.00
43364;BME280;40636;52.424;-1.948;2023-04-01T05:51:02;98658.59;;;6.83;100.00
43364;BME280;40636;52.424;-1.948;2023-04-01T05:53:29;98656.31;;;6.75;100.00
43364;BME280;40636;52.424;-1.948;2023-04-01T05:55:56;98666.69;;;6.73;100.00
43364;BME280;40636;52.424;-1.948;2023-04-01T05:58:22;98661.19;;;6.68;100.00
43364;BME280;40636;52.424;-1.948;2023-04-01T06:00:49;98663.69;;;6.74;100.00
43364;BME280;40636;52.424;-1.948;2023-04-01T06:03:34;98674.81;;;6.68;100.00
43364;BME280;40636;52.424;-1.948;2023-04-01T06:06:01;98669.41;;;6.73;100.00
43364;BME280;40636;52.424;-1.948;2023-04-01T06:08:31;98674.28;;;6.71;100.00
43364;BME280;40636;52.424;-1.948;2023-04-01T06:11:01;98678.59;;;6.67;100.00
43364;BME280;40636;52.424;-1.948;2023-04-01T06:25:21;98701.81;;;6.69;100.00
43364;BME280;40636;52.424;-1.948;2023-04-01T06:28:04;98708.63;;;6.72;100.00
43364;BME280;40636;52.424;-1.948;2023-04-01T06:30:53;98706.94;;;6.66;100.00
43364;BME280;40636;52.424;-1.948;2023-04-01T06:34:12;98712.22;;;6.72;100.00
43364;BME280;40636;52.424;-1.948;2023-04-01T06:49:54;98727.22;;;6.75;100.00
43364;BME280;40636;52.424;-1.948;2023-04-01T06:52:32;98730.00;;;6.80;100.00
43364;BME280;40636;52.424;-1.948;2023-04-01T06:55:38;98734.94;;;6.83;100.00
43364;BME280;40636;52.424;-1.948;2023-04-01T06:58:23;98743.19;;;6.88;100.00
43364;BME280;40636;52.424;-1.948;2023-04-01T07:00:58;98737.72;;;6.88;100.00
43364;BME280;40636;52.424;-1.948;2023-04-01T07:03:40;98742.63;;;6.86;100.00
43364;BME280;40636;52.424;-1.948;2023-04-01T07:06:16;98742.66;;;6.91;100.00
43364;BME280;40636;52.424;-1.948;2023-04-01T07:08:45;98759.59;;;6.93;100.00
43364;BME280;40636;52.424;-1.948;2023-04-01T07:11:34;98756.34;;;6.96;100.00
43364;BME280;40636;52.424;-1.948;2023-04-01T07:14:17;98763.91;;;6.89;100.00
43364;BME280;40636;52.424;-1.948;2023-04-01T07:16:54;98763.97;;;6.94;100.00
43364;BME280;40636;52.424;-1.948;2023-04-01T07:19:45;98768.09;;;6.97;100.00
43364;BME280;40636;52.424;-1.948;2023-04-01T07:22:33;98773.03;;;7.00;100.00
43364;BME280;40636;52.424;-1.948;2023-04-01T07:25:21;98777.84;;;6.93;100.00
43364;BME280;40636;52.424;-1.948;2023-04-01T07:27:50;98777.09;;;6.97;100.00
43364;BME280;40636;52.424;-1.948;2023-04-01T07:30:21;98779.31;;;7.00;100.00
43364;BME280;40636;52.424;-1.948;2023-04-01T07:33:04;98785.78;;;6.94;100.00
43364;BME280;40636;52.424;-1.948;2023-04-01T07:41:09;98803.91;;;7.05;100.00
43364;BME280;40636;52.424;-1.948;2023-04-01T07:54:19;98830.94;;;6.85;100.00
43364;BME280;40636;52.424;-1.948;2023-04-01T07:57:12;98838.56;;;6.83;100.00
43364;BME280;40636;52.424;-1.948;2023-04-01T08:00:08;98841.22;;;6.78;100.00
43364;BME280;40636;52.424;-1.948;2023-04-01T08:05:40;98851.94;;;6.84;100.00
43364;BME280;40636;52.424;-1.948;2023-04-01T08:14:07;98863.81;;;6.95;100.00
43364;BME280;40636;52.424;-1.948;2023-04-01T08:19:25;98870.59;;;6.93;100.00
43364;BME280;40636;52.424;-1.948;2023-04-01T08:21:58;98869.13;;;6.85;100.00
43364;BME280;40636;52.424;-1.948;2023-04-01T08:24:41;98880.03;;;6.85;100.00
43364;BME280;40636;52.424;-1.948;2023-04-01T08:27:35;98876.84;;;6.93;100.00
43364;BME280;40636;52.424;-1.948;2023-04-01T08:30:06;98886.06;;;6.87;100.00
43364;BME280;40636;52.424;-1.948;2023-04-01T08:32:47;98886.81;;;6.82;100.00
43364;BME280;40636;52.424;-1.948;2023-04-01T08:35:44;98888.34;;;6.95;100.00
43364;BME280;40636;52.424;-1.948;2023-04-01T08:38:17;98887.28;;;6.96;100.00
43364;BME280;40636;52.424;-1.948;2023-04-01T08:47:13;98904.47;;;6.97;100.00
43364;BME280;40636;52.424;-1.948;2023-04-01T08:52:32;98908.84;;;6.98;100.00
43364;BME280;40636;52.424;-1.948;2023-04-01T08:58:14;98915.31;;;7.14;100.00
43364;BME280;40636;52.424;-1.948;2023-04-01T09:05:06;98927.06;;;7.14;100.00
43364;BME280;40636;52.424;-1.948;2023-04-01T09:13:08;98935.75;;;7.11;100.00
43364;BME280;40636;52.424;-1.948;2023-04-01T09:18:54;98950.19;;;7.11;100.00
43364;BME280;40636;52.424;-1.948;2023-04-01T09:29:50;98962.66;;;7.24;100.00
43364;BME280;40636;52.424;-1.948;2023-04-01T09:37:51;98958.13;;;7.57;100.00
43364;BME280;40636;52.424;-1.948;2023-04-01T09:40:41;98955.78;;;7.66;100.00
43364;BME280;40636;52.424;-1.948;2023-04-01T09:46:14;98961.06;;;7.72;100.00
43364;BME280;40636;52.424;-1.948;2023-04-01T09:49:11;98967.44;;;7.83;100.00
43364;BME280;40636;52.424;-1.948;2023-04-01T10:00:51;98979.19;;;7.83;100.00
43364;BME280;40636;52.424;-1.948;2023-04-01T10:15:33;99004.69;;;8.43;100.00
43364;BME280;40636;52.424;-1.948;2023-04-01T10:32:27;99023.81;;;9.12;100.00
43364;BME280;40636;52.424;-1.948;2023-04-01T10:46:46;99040.38;;;8.91;100.00
43364;BME280;40636;52.424;-1.948;2023-04-01T10:52:28;99052.66;;;8.88;100.00
43364;BME280;40636;52.424;-1.948;2023-04-01T10:55:19;99050.88;;;9.04;100.00
43364;BME280;40636;52.424;-1.948;2023-04-01T11:09:24;99067.31;;;9.09;100.00
43364;BME280;40636;52.424;-1.948;2023-04-01T11:18:06;99075.88;;;9.65;100.00
43364;BME280;40636;52.424;-1.948;2023-04-01T11:26:33;99082.78;;;9.73;100.00
43364;BME280;40636;52.424;-1.948;2023-04-01T11:34:50;99095.31;;;9.63;100.00
43364;BME280;40636;52.424;-1.948;2023-04-01T11:40:17;99105.84;;;9.82;100.00
43364;BME280;40636;52.424;-1.948;2023-04-01T11:43:01;99106.34;;;9.74;100.00
43364;BME280;40636;52.424;-1.948;2023-04-01T11:45:36;99116.59;;;9.99;100.00
43364;BME280;40636;52.424;-1.948;2023-04-01T11:48:19;99115.41;;;9.79;100.00
43364;BME280;40636;52.424;-1.948;2023-04-01T12:05:28;99143.88;;;10.26;100.00
43364;BME280;40636;52.424;-1.948;2023-04-01T12:21:14;99188.88;;;10.35;100.00
43364;BME280;40636;52.424;-1.948;2023-04-01T12:35:00;99174.50;;;10.85;100.00
43364;BME280;40636;52.424;-1.948;2023-04-01T12:37:58;99179.16;;;10.80;100.00
43364;BME280;40636;52.424;-1.948;2023-04-01T12:40:40;99179.09;;;10.49;100.00
43364;BME280;40636;52.424;-1.948;2023-04-01T12:46:03;99193.81;;;10.28;100.00
43364;BME280;40636;52.424;-1.948;2023-04-01T12:57:05;99203.91;;;10.22;100.00
43364;BME280;40636;52.424;-1.948;2023-04-01T13:00:03;99216.13;;;10.04;100.00
43364;BME280;40636;52.424;-1.948;2023-04-01T13:11:02;99227.44;;;10.13;100.00
43364;BME280;40636;52.424;-1.948;2023-04-01T13:16:30;99240.13;;;9.87;100.00
43364;BME280;40636;52.424;-1.948;2023-04-01T13:19:21;99241.22;;;9.86;100.00
43364;BME280;40636;52.424;-1.948;2023-04-01T13:24:36;99246.66;;;10.18;100.00
43364;BME280;40636;52.424;-1.948;2023-04-01T13:27:33;99239.22;;;10.13;100.00
43364;BME280;40636;52.424;-1.948;2023-04-01T13:41:11;99264.41;;;10.10;100.00
43364;BME280;40636;52.424;-1.948;2023-04-01T13:43:43;99272.94;;;10.14;100.00
43364;BME280;40636;52.424;-1.948;2023-04-01T13:58:42;99287.22;;;10.21;100.00
43364;BME280;40636;52.424;-1.948;2023-04-01T14:04:14;99293.63;;;9.95;100.00
43364;BME280;40636;52.424;-1.948;2023-04-01T14:12:57;99319.22;;;9.73;100.00
43364;BME280;40636;52.424;-1.948;2023-04-01T14:24:08;99334.47;;;9.37;100.00
43364;BME280;40636;52.424;-1.948;2023-04-01T14:27:06;99347.44;;;9.47;100.00
43364;BME280;40636;52.424;-1.948;2023-04-01T14:32:19;99346.81;;;9.39;100.00
43364;BME280;40636;52.424;-1.948;2023-04-01T14:40:44;99360.94;;;9.53;100.00
43364;BME280;40636;52.424;-1.948;2023-04-01T14:48:50;99377.00;;;9.72;100.00
43364;BME280;40636;52.424;-1.948;2023-04-01T14:51:34;99376.53;;;9.80;100.00
43364;BME280;40636;52.424;-1.948;2023-04-01T14:54:30;99377.00;;;9.72;100.00
43364;BME280;40636;52.424;-1.948;2023-04-01T14:57:36;99387.31;;;9.86;100.00
43364;BME280;40636;52.424;-1.948;2023-04-01T15:06:12;99406.03;;;9.68;100.00
43364;BME280;40636;52.424;-1.948;2023-04-01T15:08:19;99401.94;;;9.70;100.00
43364;BME280;40636;52.424;-1.948;2023-04-01T15:19:30;99424.06;;;9.63;100.00
43364;BME280;40636;52.424;-1.948;2023-04-01T15:23:18;99433.63;;;9.39;100.00
43364;BME280;40636;52.424;-1.948;2023-04-01T15:30:28;99450.88;;;9.39;100.00
43364;BME280;40636;52.424;-1.948;2023-04-01T15:35:46;99459.47;;;9.48;100.00
43364;BME280;40636;52.424;-1.948;2023-04-01T15:38:59;99461.44;;;9.53;100.00
43364;BME280;40636;52.424;-1.948;2023-04-01T15:46:57;99476.28;;;9.35;100.00
43364;BME280;40636;52.424;-1.948;2023-04-01T15:49:45;99482.59;;;9.35;100.00
43364;BME280;40636;52.424;-1.948;2023-04-01T15:56:06;99496.56;;;9.56;100.00
43364;BME280;40636;52.424;-1.948;2023-04-01T15:58:37;99494.31;;;9.53;100.00
43364;BME280;40636;52.424;-1.948;2023-04-01T16:04:26;99497.50;;;9.23;100.00
43364;BME280;40636;52.424;-1.948;2023-04-01T16:10:06;99513.47;;;9.31;100.00
43364;BME280;40636;52.424;-1.948;2023-04-01T16:16:07;99528.66;;;9.22;100.00
43364;BME280;40636;52.424;-1.948;2023-04-01T16:22:05;99539.13;;;9.25;100.00
43364;BME280;40636;52.424;-1.948;2023-04-01T16:27:18;99547.22;;;8.98;100.00
43364;BME280;40636;52.424;-1.948;2023-04-01T16:30:01;99551.94;;;9.02;100.00
43364;BME280;40636;52.424;-1.948;2023-04-01T16:32:35;99565.19;;;8.94;100.00
43364;BME280;40636;52.424;-1.948;2023-04-01T16:35:30;99562.41;;;9.05;100.00
43364;BME280;40636;52.424;-1.948;2023-04-01T16:41:00;99580.88;;;8.98;100.00
43364;BME280;40636;52.424;-1.948;2023-04-01T16:43:48;99580.16;;;8.86;100.00
43364;BME280;40636;52.424;-1.948;2023-04-01T16:57:37;99599.72;;;8.78;100.00
43364;BME280;40636;52.424;-1.948;2023-04-01T17:00:39;99602.53;;;8.83;100.00
43364;BME280;40636;52.424;-1.948;2023-04-01T17:03:12;99605.09;;;8.73;100.00
43364;BME280;40636;52.424;-1.948;2023-04-01T17:06:12;99618.34;;;8.64;100.00
43364;BME280;40636;52.424;-1.948;2023-04-01T17:17:08;99633.50;;;8.72;100.00
43364;BME280;40636;52.424;-1.948;2023-04-01T17:20:25;99637.94;;;8.73;100.00
43364;BME280;40636;52.424;-1.948;2023-04-01T17:23:16;99640.72;;;8.61;100.00
43364;BME280;40636;52.424;-1.948;2023-04-01T17:41:59;99681.28;;;8.52;100.00
43364;BME280;40636;52.424;-1.948;2023-04-01T17:44:50;99686.19;;;8.50;100.00
43364;BME280;40636;52.424;-1.948;2023-04-01T17:50:14;99689.50;;;8.52;100.00
43364;BME280;40636;52.424;-1.948;2023-04-01T17:53:04;99703.06;;;8.47;100.00
43364;BME280;40636;52.424;-1.948;2023-04-01T17:58:22;99718.28;;;8.43;100.00
43364;BME280;40636;52.424;-1.948;2023-04-01T18:06:59;99730.22;;;8.37;100.00
43364;BME280;40636;52.424;-1.948;2023-04-01T18:09:43;99742.19;;;8.36;100.00
43364;BME280;40636;52.424;-1.948;2023-04-01T18:12:40;99746.97;;;8.41;100.00
43364;BME280;40636;52.424;-1.948;2023-04-01T18:20:36;99750.03;;;8.44;100.00
43364;BME280;40636;52.424;-1.948;2023-04-01T18:26:14;99768.50;;;8.37;100.00
43364;BME280;40636;52.424;-1.948;2023-04-01T18:28:56;99768.84;;;8.41;100.00
43364;BME280;40636;52.424;-1.948;2023-04-01T18:31:32;99777.97;;;8.34;100.00
43364;BME280;40636;52.424;-1.948;2023-04-01T18:34:21;99790.56;;;8.35;100.00
43364;BME280;40636;52.424;-1.948;2023-04-01T18:37:34;99798.56;;;8.37;100.00
43364;BME280;40636;52.424;-1.948;2023-04-01T18:40:23;99813.28;;;8.36;100.00
43364;BME280;40636;52.424;-1.948;2023-04-01T18:45:56;99817.56;;;8.32;100.00
43364;BME280;40636;52.424;-1.948;2023-04-01T18:54:06;99835.00;;;8.31;100.00
43364;BME280;40636;52.424;-1.948;2023-04-01T18:56:39;99846.31;;;8.34;100.00
43364;BME280;40636;52.424;-1.948;2023-04-01T18:59:28;99849.03;;;8.34;100.00
43364;BME280;40636;52.424;-1.948;2023-04-01T19:04:56;99846.44;;;8.28;100.00
43364;BME280;40636;52.424;-1.948;2023-04-01T19:10:01;99851.91;;;8.28;100.00
43364;BME280;40636;52.424;-1.948;2023-04-01T19:15:20;99861.78;;;8.29;100.00
43364;BME280;40636;52.424;-1.948;2023-04-01T19:21:04;99874.72;;;8.22;100.00
43364;BME280;40636;52.424;-1.948;2023-04-01T19:24:12;99876.72;;;8.26;100.00
43364;BME280;40636;52.424;-1.948;2023-04-01T19:29:54;99895.41;;;8.29;100.00
43364;BME280;40636;52.424;-1.948;2023-04-01T19:32:45;99904.31;;;8.25;100.00
43364;BME280;40636;52.424;-1.948;2023-04-01T19:35:29;99911.13;;;8.22;100.00
43364;BME280;40636;52.424;-1.948;2023-04-01T19:40:43;99917.88;;;8.20;100.00
43364;BME280;40636;52.424;-1.948;2023-04-01T19:43:25;99923.69;;;8.11;100.00
43364;BME280;40636;52.424;-1.948;2023-04-01T19:51:52;99943.06;;;8.22;100.00
43364;BME280;40636;52.424;-1.948;2023-04-01T19:57:29;99963.13;;;8.16;100.00
43364;BME280;40636;52.424;-1.948;2023-04-01T20:00:36;99959.81;;;8.13;100.00
43364;BME280;40636;52.424;-1.948;2023-04-01T20:19:11;99988.38;;;7.87;100.00
43364;BME280;40636;52.424;-1.948;2023-04-01T20:21:42;100004.91;;;7.93;100.00
43364;BME280;40636;52.424;-1.948;2023-04-01T20:26:43;100006.66;;;7.87;100.00
43364;BME280;40636;52.424;-1.948;2023-04-01T20:29:23;100006.19;;;7.90;100.00
43364;BME280;40636;52.424;-1.948;2023-04-01T20:37:44;100031.28;;;7.99;100.00
43364;BME280;40636;52.424;-1.948;2023-04-01T20:40:40;100024.25;;;7.91;100.00
43364;BME280;40636;52.424;-1.948;2023-04-01T20:43:20;100029.72;;;7.91;100.00
43364;BME280;40636;52.424;-1.948;2023-04-01T20:51:18;100034.81;;;7.87;100.00
43364;BME280;40636;52.424;-1.948;2023-04-01T20:54:15;100044.28;;;7.85;100.00
43364;BME280;40636;52.424;-1.948;2023-04-01T21:05:19;100054.34;;;7.73;100.00
43364;BME280;40636;52.424;-1.948;2023-04-01T21:10:40;100071.47;;;7.80;100.00
43364;BME280;40636;52.424;-1.948;2023-04-01T21:19:12;100082.00;;;7.76;100.00
43364;BME280;40636;52.424;-1.948;2023-04-01T21:40:47;100109.44;;;7.70;100.00
43364;BME280;40636;52.424;-1.948;2023-04-01T21:49:31;100117.31;;;7.78;100.00
43364;BME280;40636;52.424;-1.948;2023-04-01T21:52:35;100118.22;;;7.72;100.00
43364;BME280;40636;52.424;-1.948;2023-04-01T21:55:33;100124.44;;;7.79;100.00
43364;BME280;40636;52.424;-1.948;2023-04-01T22:00:39;100139.63;;;7.75;100.00
43364;BME280;40636;52.424;-1.948;2023-04-01T22:11:34;100158.06;;;7.79;100.00
43364;BME280;40636;52.424;-1.948;2023-04-01T22:17:16;100162.41;;;7.69;100.00
43364;BME280;40636;52.424;-1.948;2023-04-01T22:25:37;100172.09;;;7.65;100.00
43364;BME280;40636;52.424;-1.948;2023-04-01T22:28:10;100169.59;;;7.63;100.00
43364;BME280;40636;52.424;-1.948;2023-04-01T22:31:00;100186.97;;;7.69;100.00
43364;BME280;40636;52.424;-1.948;2023-04-01T22:42:35;100198.97;;;7.68;100.00
43364;BME280;40636;52.424;-1.948;2023-04-01T22:47:50;100205.63;;;7.72;100.00
43364;BME280;40636;52.424;-1.948;2023-04-01T22:50:27;100216.94;;;7.75;100.00